createdAt,value
2019-05-12T00:02:48.960Z,13.50
2019-05-12T00:05:54.124Z,13.40
2019-05-12T00:08:59.113Z,13.40
2019-05-12T00:12:04.168Z,13.40
2019-05-12T00:15:09.477Z,13.50
2019-05-12T00:18:14.541Z,13.50
2019-05-12T00:21:19.225Z,13.60
2019-05-12T00:24:23.987Z,13.60
2019-05-12T00:27:28.672Z,13.60
2019-05-12T00:30:45.889Z,13.60
2019-05-12T00:33:51.269Z,13.50
2019-05-12T00:36:57.721Z,13.50
2019-05-12T00:40:02.765Z,13.50
2019-05-12T00:43:08.705Z,13.40
2019-05-12T00:46:13.994Z,13.30
2019-05-12T00:49:18.896Z,13.30
2019-05-12T00:52:23.951Z,13.30
2019-05-12T00:55:29.183Z,13.40
2019-05-12T00:58:34.401Z,13.40
2019-05-12T01:01:39.372Z,13.40
2019-05-12T01:04:44.693Z,13.30
2019-05-12T01:07:51.208Z,13.40
2019-05-12T01:10:58.352Z,13.50
2019-05-12T01:14:03.119Z,13.40
2019-05-12T01:17:08.385Z,13.40
2019-05-12T01:20:14.280Z,13.40
2019-05-12T01:23:23.206Z,13.50
2019-05-12T01:26:28.340Z,13.50
2019-05-12T01:29:33.204Z,13.60
2019-05-12T01:32:40.057Z,13.60
2019-05-12T01:35:45.056Z,13.70
2019-05-12T01:38:50.237Z,13.80
2019-05-12T01:41:55.202Z,13.90
2019-05-12T01:45:00.603Z,13.90
2019-05-12T01:48:08.319Z,13.90
2019-05-12T01:51:12.165Z,13.80
2019-05-12T01:54:18.888Z,13.80
2019-05-12T01:57:23.994Z,13.70
2019-05-12T02:00:29.138Z,13.60
2019-05-12T02:03:34.181Z,13.60
2019-05-12T02:06:39.550Z,13.60
2019-05-12T02:09:44.870Z,13.60
2019-05-12T02:12:50.293Z,13.80
2019-05-12T02:15:55.217Z,13.80
2019-05-12T02:19:00.722Z,13.80
2019-05-12T02:22:08.285Z,13.90
2019-05-12T02:25:13.573Z,13.90
2019-05-12T02:28:18.733Z,13.80
2019-05-12T02:31:23.730Z,13.90
2019-05-12T02:34:28.948Z,13.80
2019-05-12T02:37:35.848Z,13.80
2019-05-12T02:40:40.686Z,13.80
2019-05-12T02:43:46.060Z,13.80
2019-05-12T02:46:51.398Z,13.70
2019-05-12T02:49:56.646Z,13.70
2019-05-12T02:53:04.923Z,13.60
2019-05-12T02:56:09.967Z,13.60
2019-05-12T02:59:16.600Z,13.40
2019-05-12T03:02:24.399Z,13.30
2019-05-12T03:05:31.071Z,13.30
2019-05-12T03:08:37.910Z,13.30
2019-05-12T03:11:45.207Z,13.30
2019-05-12T03:14:50.145Z,13.30
2019-05-12T03:17:55.022Z,13.30
2019-05-12T03:21:00.054Z,13.20
2019-05-12T03:24:06.425Z,13.20
2019-05-12T03:27:14.604Z,13.20
2019-05-12T03:30:20.117Z,13.20
2019-05-12T03:33:33.498Z,13.30
2019-05-12T03:36:39.149Z,13.30
2019-05-12T03:39:38.376Z,13.40
2019-05-12T03:42:44.485Z,13.40
2019-05-12T03:45:49.617Z,13.40
2019-05-12T03:48:55.495Z,13.40
2019-05-12T03:52:00.575Z,13.40
2019-05-12T03:55:25.965Z,13.40
2019-05-12T03:58:15.260Z,13.40
2019-05-12T04:01:19.994Z,13.40
2019-05-12T04:04:24.895Z,13.40
2019-05-12T04:07:30.121Z,13.50
2019-05-12T04:10:36.174Z,13.50
2019-05-12T04:13:44.940Z,13.50
2019-05-12T04:16:48.746Z,13.60
2019-05-12T04:19:54.954Z,13.60
2019-05-12T04:23:00.151Z,13.70
2019-05-12T04:26:11.854Z,13.70
2019-05-12T04:29:15.130Z,13.70
2019-05-12T04:32:18.662Z,13.80
2019-05-12T04:35:25.110Z,13.80
2019-05-12T04:38:30.665Z,13.80
2019-05-12T04:41:35.706Z,13.80
2019-05-12T04:44:40.949Z,13.70
2019-05-12T04:47:45.778Z,13.80
2019-05-12T04:50:50.843Z,13.80
2019-05-12T04:53:55.798Z,13.80
2019-05-12T04:57:03.980Z,13.80
2019-05-12T05:00:08.338Z,13.80
2019-05-12T05:03:14.188Z,13.70
2019-05-12T05:06:19.505Z,13.70
2019-05-12T05:09:24.724Z,13.60
2019-05-12T05:12:30.025Z,13.60
2019-05-12T05:15:35.582Z,13.60
2019-05-12T05:18:40.968Z,13.60
2019-05-12T05:21:46.128Z,13.70
2019-05-12T05:24:53.498Z,13.70
2019-05-12T05:27:58.033Z,13.70
2019-05-12T05:31:03.622Z,13.70
2019-05-12T05:34:08.949Z,13.80
2019-05-12T05:37:14.628Z,13.80
2019-05-12T05:40:24.913Z,14.00
2019-05-12T05:43:26.472Z,14.10
2019-05-12T05:46:33.438Z,14.10
2019-05-12T05:49:38.121Z,14.10
2019-05-12T05:52:43.734Z,14.30
2019-05-12T05:55:50.306Z,14.30
2019-05-12T05:58:55.529Z,14.40
2019-05-12T06:02:00.549Z,14.50
2019-05-12T06:05:05.706Z,14.60
2019-05-12T06:08:18.603Z,14.50
2019-05-12T06:11:26.550Z,14.50
2019-05-12T06:14:24.838Z,14.40
2019-05-12T06:17:29.883Z,14.50
2019-05-12T06:20:37.988Z,14.60
2019-05-12T06:23:43.458Z,14.60
2019-05-12T06:26:57.796Z,14.60
2019-05-12T06:30:00.942Z,14.60
2019-05-12T06:33:04.051Z,14.60
2019-05-12T06:36:14.002Z,14.60
2019-05-12T06:39:19.383Z,14.60
2019-05-12T06:42:40.753Z,14.60
2019-05-12T06:45:45.917Z,14.70
2019-05-12T06:48:50.797Z,14.60
2019-05-12T06:52:01.592Z,14.60
2019-05-12T06:55:04.082Z,14.60
2019-05-12T06:58:09.365Z,14.50
2019-05-12T07:01:19.083Z,14.40
2019-05-12T07:04:21.905Z,14.30
2019-05-12T07:07:28.056Z,14.20
2019-05-12T07:10:43.182Z,14.20
2019-05-12T07:13:43.569Z,14.10
2019-05-12T07:17:01.162Z,14.10
2019-05-12T07:19:59.205Z,14.00
2019-05-12T07:23:04.219Z,14.00
2019-05-12T07:26:14.170Z,14.00
2019-05-12T07:29:15.879Z,14.10
2019-05-12T07:32:24.529Z,14.30
2019-05-12T07:35:28.999Z,14.40
2019-05-12T07:38:34.718Z,14.40
2019-05-12T07:41:42.275Z,14.40
2019-05-12T07:44:48.184Z,14.50
2019-05-12T07:47:54.157Z,14.60
2019-05-12T07:51:00.753Z,14.60
2019-05-12T07:54:05.867Z,14.70
2019-05-12T07:57:17.416Z,14.70
2019-05-12T08:00:21.584Z,14.80
2019-05-12T08:03:27.081Z,14.80
2019-05-12T08:06:41.396Z,14.70
2019-05-12T08:09:38.745Z,14.80
2019-05-12T08:12:44.432Z,14.90
2019-05-12T08:15:53.243Z,15.00
2019-05-12T08:18:56.593Z,15.20
2019-05-12T08:22:01.466Z,15.20
2019-05-12T08:25:07.299Z,15.10
2019-05-12T08:28:18.835Z,15.10
2019-05-12T08:31:25.846Z,15.00
2019-05-12T08:34:26.286Z,15.00
2019-05-12T08:37:33.285Z,14.90
2019-05-12T08:40:48.907Z,14.90
2019-05-12T08:43:47.212Z,15.10
2019-05-12T08:46:52.154Z,15.10
2019-05-12T08:49:58.712Z,15.10
2019-05-12T08:53:04.764Z,15.10
2019-05-12T08:56:13.066Z,15.10
2019-05-12T08:59:18.476Z,15.10
2019-05-12T09:02:24.070Z,15.10
2019-05-12T09:05:34.556Z,15.20
2019-05-12T09:08:43.931Z,15.20
2019-05-12T09:11:44.057Z,15.30
2019-05-12T09:14:49.183Z,15.40
2019-05-12T09:17:56.827Z,15.40
2019-05-12T09:21:00.709Z,15.30
2019-05-12T09:24:05.828Z,15.30
2019-05-12T09:27:13.607Z,15.40
2019-05-12T09:30:27.645Z,15.40
2019-05-12T09:33:34.757Z,15.30
2019-05-12T09:36:39.319Z,15.30
2019-05-12T09:39:47.350Z,15.30
2019-05-12T09:42:53.316Z,15.20
2019-05-12T09:45:58.418Z,15.20
2019-05-12T09:49:04.087Z,15.20
2019-05-12T09:52:13.843Z,15.30
2019-05-12T09:55:34.998Z,15.30
2019-05-12T09:58:39.903Z,15.20
2019-05-12T10:01:46.037Z,15.00
2019-05-12T10:04:56.487Z,15.00
2019-05-12T10:07:57.992Z,15.00
2019-05-12T10:11:03.777Z,15.00
2019-05-12T10:14:10.975Z,14.90
2019-05-12T10:17:20.329Z,14.70
2019-05-12T10:20:24.177Z,14.50
2019-05-12T10:23:29.274Z,14.30
2019-05-12T10:26:34.385Z,14.10
2019-05-12T10:29:39.500Z,14.00
2019-05-12T10:32:44.568Z,13.90
2019-05-12T10:35:49.533Z,13.80
2019-05-12T10:38:54.772Z,13.80
2019-05-12T10:41:59.659Z,13.70
2019-05-12T10:45:04.957Z,13.80
2019-05-12T10:48:10.117Z,13.90
2019-05-12T10:51:15.351Z,14.10
2019-05-12T10:54:20.769Z,14.10
2019-05-12T10:57:25.774Z,14.30
2019-05-12T11:00:30.886Z,14.40
2019-05-12T11:03:35.898Z,14.60
2019-05-12T11:06:44.707Z,14.70
2019-05-12T11:09:47.405Z,14.90
2019-05-12T11:12:52.336Z,15.00
2019-05-12T11:15:57.217Z,15.10
2019-05-12T11:19:08.788Z,15.20
2019-05-12T11:22:08.716Z,15.10
2019-05-12T11:25:14.476Z,14.90
2019-05-12T11:28:19.459Z,14.70
2019-05-12T11:31:24.475Z,14.50
2019-05-12T11:34:29.637Z,14.40
2019-05-12T11:37:34.889Z,14.20
2019-05-12T11:40:40.390Z,14.20
2019-05-12T11:43:45.401Z,14.20
2019-05-12T11:46:50.561Z,14.30
2019-05-12T11:49:58.618Z,14.30
2019-05-12T11:53:04.197Z,14.30
2019-05-12T11:56:09.368Z,14.40
2019-05-12T11:59:14.447Z,14.60
2019-05-12T12:02:25.485Z,14.80
2019-05-12T12:05:26.875Z,15.20
2019-05-12T12:08:33.676Z,15.40
2019-05-12T12:11:38.618Z,15.70
2019-05-12T12:14:46.217Z,16.00
2019-05-12T12:17:50.628Z,16.10
2019-05-12T12:21:02.737Z,16.50
2019-05-12T12:24:03.925Z,17.00
2019-05-12T12:27:09.204Z,17.40
2019-05-12T12:30:19.694Z,17.70
2019-05-12T12:33:23.469Z,18.00
2019-05-12T12:36:28.589Z,18.20
2019-05-12T12:39:33.510Z,18.30
2019-05-12T12:42:44.242Z,18.10
2019-05-12T12:45:53.022Z,18.10
2019-05-12T12:49:00.285Z,18.00
2019-05-12T12:52:05.148Z,17.70
2019-05-12T12:55:10.141Z,17.70
2019-05-12T12:58:15.237Z,17.70
2019-05-12T13:01:26.456Z,17.80
2019-05-12T13:04:28.859Z,17.90
2019-05-12T13:07:33.539Z,17.90
2019-05-12T13:10:40.420Z,17.80
2019-05-12T13:13:47.158Z,17.80
2019-05-12T13:16:54.698Z,17.80
2019-05-12T13:19:59.015Z,17.70
2019-05-12T13:23:04.244Z,17.50
2019-05-12T13:26:09.377Z,17.50
2019-05-12T13:29:14.376Z,17.50
2019-05-12T13:32:25.840Z,17.60
2019-05-12T13:35:26.101Z,17.50
2019-05-12T13:38:38.685Z,17.50
2019-05-12T13:41:38.042Z,17.70
2019-05-12T13:44:43.727Z,17.90
2019-05-12T13:47:49.005Z,17.90
2019-05-12T13:51:07.397Z,17.70
2019-05-12T13:54:00.677Z,17.50
2019-05-12T13:57:11.955Z,17.20
2019-05-12T14:00:14.085Z,17.10
2019-05-12T14:03:19.204Z,17.00
2019-05-12T14:06:31.716Z,16.90
2019-05-12T14:09:31.276Z,16.70
2019-05-12T14:12:36.371Z,16.60
2019-05-12T14:15:44.092Z,16.40
2019-05-12T14:18:51.162Z,16.40
2019-05-12T14:21:54.840Z,16.20
2019-05-12T14:25:02.259Z,16.00
2019-05-12T14:28:09.329Z,15.80
2019-05-12T14:31:24.474Z,15.70
2019-05-12T14:34:21.051Z,15.50
2019-05-12T14:37:26.244Z,15.40
2019-05-12T14:40:31.532Z,15.40
2019-05-12T14:43:36.430Z,15.20
2019-05-12T14:46:46.330Z,15.10
2019-05-12T14:49:47.974Z,15.00
2019-05-12T14:52:57.812Z,15.00
2019-05-12T14:55:59.600Z,15.00
2019-05-12T14:59:04.731Z,14.90
2019-05-12T15:02:11.029Z,15.00
2019-05-12T15:05:16.412Z,15.00
2019-05-12T15:08:35.575Z,15.00
2019-05-12T15:11:29.211Z,14.90
2019-05-12T15:14:37.979Z,14.80
2019-05-12T15:17:41.230Z,14.80
2019-05-12T15:20:49.768Z,14.50
2019-05-12T15:23:53.399Z,14.40
2019-05-12T15:27:00.712Z,14.40
2019-05-12T15:30:18.924Z,14.40
2019-05-12T15:33:13.932Z,14.40
2019-05-12T15:36:19.043Z,14.30
2019-05-12T15:39:24.017Z,14.20
2019-05-12T15:42:29.138Z,14.20
2019-05-12T15:45:34.402Z,14.20
2019-05-12T15:48:39.515Z,14.20
2019-05-12T15:51:54.008Z,14.10
2019-05-12T15:54:53.552Z,14.10
2019-05-12T15:57:58.033Z,14.10
2019-05-12T16:01:16.555Z,14.00
2019-05-12T16:04:18.877Z,14.00
2019-05-12T16:07:24.306Z,13.80
2019-05-12T16:10:29.330Z,13.70
2019-05-12T16:13:34.298Z,13.70
2019-05-12T16:16:42.419Z,13.60
2019-05-12T16:19:45.754Z,13.50
2019-05-12T16:22:50.666Z,13.50
2019-05-12T16:25:55.648Z,13.30
2019-05-12T16:29:03.154Z,13.30
2019-05-12T16:32:07.739Z,13.20
2019-05-12T16:35:20.343Z,13.10
2019-05-12T16:38:23.932Z,13.10
2019-05-12T16:41:29.966Z,13.10
2019-05-12T16:44:36.001Z,13.10
2019-05-12T16:47:41.039Z,13.10
2019-05-12T16:50:53.288Z,13.10
2019-05-12T16:53:58.227Z,13.10
2019-05-12T16:57:06.325Z,13.10
2019-05-12T17:00:13.627Z,13.00
2019-05-12T17:03:18.371Z,13.00
2019-05-12T17:06:28.523Z,12.90
2019-05-12T17:09:30.273Z,12.90
2019-05-12T17:12:37.014Z,12.90
2019-05-12T17:15:43.312Z,12.90
2019-05-12T17:18:48.445Z,12.90
2019-05-12T17:22:13.395Z,12.80
2019-05-12T17:25:18.295Z,12.80
2019-05-12T17:28:23.925Z,12.70
2019-05-12T17:31:28.983Z,12.60
2019-05-12T17:34:34.211Z,12.60
2019-05-12T17:37:41.398Z,12.60
2019-05-12T17:40:50.253Z,12.50
2019-05-12T17:44:00.503Z,12.50
2019-05-12T17:46:59.778Z,12.50
2019-05-12T17:50:06.743Z,12.40
2019-05-12T17:53:13.830Z,12.40
2019-05-12T17:56:18.716Z,12.40
2019-05-12T17:59:29.157Z,12.40
2019-05-12T18:02:34.222Z,12.40
2019-05-12T18:05:42.470Z,12.30
2019-05-12T18:08:46.142Z,12.30
2019-05-12T18:11:56.016Z,12.30
2019-05-12T18:14:58.294Z,12.30
2019-05-12T18:18:04.069Z,12.20
2019-05-12T18:21:13.187Z,12.20
2019-05-12T18:24:15.992Z,12.20
2019-05-12T18:27:20.973Z,12.20
2019-05-12T18:30:26.124Z,12.20
2019-05-12T18:33:34.881Z,12.10
2019-05-12T18:36:37.881Z,12.10
2019-05-12T18:39:43.775Z,12.20
2019-05-12T18:42:54.867Z,12.20
2019-05-12T18:46:05.480Z,12.20
2019-05-12T18:49:12.237Z,12.20
2019-05-12T18:52:14.653Z,12.10
2019-05-12T18:55:19.801Z,12.20
2019-05-12T18:58:30.850Z,12.20
2019-05-12T19:01:33.401Z,12.20
2019-05-12T19:04:39.766Z,12.30
2019-05-12T19:07:46.080Z,12.20
2019-05-12T19:10:51.787Z,12.20
2019-05-12T19:13:57.324Z,12.30
2019-05-12T19:17:03.566Z,12.40
2019-05-12T19:20:10.573Z,12.40
2019-05-12T19:23:15.773Z,12.40
2019-05-12T19:26:20.957Z,12.50
2019-05-12T19:29:29.814Z,12.40
2019-05-12T19:32:33.575Z,12.40
2019-05-12T19:35:39.490Z,12.40
2019-05-12T19:38:44.849Z,12.40
2019-05-12T19:41:50.824Z,12.40
2019-05-12T19:44:59.679Z,12.40
2019-05-12T19:48:04.114Z,12.30
2019-05-12T19:51:20.789Z,12.20
2019-05-12T19:54:19.471Z,12.30
2019-05-12T19:57:26.110Z,12.20
2019-05-12T20:00:29.948Z,12.20
2019-05-12T20:03:35.335Z,12.20
2019-05-12T20:06:40.531Z,12.10
2019-05-12T20:09:55.108Z,12.10
2019-05-12T20:12:54.553Z,12.10
2019-05-12T20:15:59.222Z,12.00
2019-05-12T20:19:04.498Z,12.00
2019-05-12T20:22:09.802Z,12.10
2019-05-12T20:25:15.141Z,12.10
2019-05-12T20:28:20.082Z,12.10
2019-05-12T20:31:27.295Z,12.10
2019-05-12T20:34:45.864Z,12.00
2019-05-12T20:37:43.498Z,12.00
2019-05-12T20:40:45.462Z,12.00
2019-05-12T20:43:50.427Z,12.00
2019-05-12T20:47:01.727Z,12.00
2019-05-12T20:50:04.304Z,12.00
2019-05-12T20:53:08.801Z,12.00
2019-05-12T20:56:20.022Z,12.00
2019-05-12T20:59:23.829Z,11.90
2019-05-12T21:02:27.188Z,11.90
2019-05-12T21:05:34.254Z,11.80
2019-05-12T21:08:38.865Z,11.90
2019-05-12T21:11:44.319Z,11.90
2019-05-12T21:14:51.547Z,11.80
2019-05-12T21:18:02.679Z,11.80
2019-05-12T21:21:03.509Z,12.00
2019-05-12T21:24:08.607Z,12.00
2019-05-12T21:27:15.824Z,12.00
2019-05-12T21:30:20.305Z,12.00
2019-05-12T21:33:25.247Z,12.00
2019-05-12T21:36:30.400Z,11.90
2019-05-12T21:39:35.290Z,12.00
2019-05-12T21:42:41.101Z,12.10
2019-05-12T21:45:46.082Z,12.00
2019-05-12T21:48:53.177Z,12.10
2019-05-12T21:52:03.060Z,12.00
2019-05-12T21:55:06.485Z,12.00
2019-05-12T21:58:14.998Z,12.10
2019-05-12T22:01:19.592Z,12.00
2019-05-12T22:04:24.889Z,12.00
2019-05-12T22:07:40.809Z,12.00
2019-05-12T22:10:45.925Z,12.00
2019-05-12T22:13:56.196Z,12.00
2019-05-12T22:17:00.257Z,12.00
2019-05-12T22:20:14.442Z,12.10
2019-05-12T22:23:14.944Z,12.00
2019-05-12T22:26:19.085Z,12.10
2019-05-12T22:29:29.538Z,12.00
2019-05-12T22:32:32.755Z,12.10
2019-05-12T22:35:37.534Z,12.00
2019-05-12T22:38:44.385Z,12.10
2019-05-12T22:41:49.428Z,12.10
2019-05-12T22:45:01.513Z,12.10
2019-05-12T22:48:03.659Z,12.10
2019-05-12T22:51:18.707Z,12.10
2019-05-12T22:54:14.741Z,12.00
2019-05-12T22:57:19.949Z,12.10
2019-05-12T23:00:25.787Z,12.20
2019-05-12T23:03:30.747Z,12.10
2019-05-12T23:06:42.223Z,12.00
2019-05-12T23:09:43.570Z,12.00
2019-05-12T23:12:50.206Z,12.10
2019-05-12T23:15:55.622Z,12.20
2019-05-12T23:19:01.346Z,12.00
2019-05-12T23:22:07.857Z,12.00
2019-05-12T23:25:20.079Z,12.00
2019-05-12T23:28:19.300Z,12.00
2019-05-12T23:31:26.087Z,12.10
2019-05-12T23:34:33.709Z,12.20
2019-05-12T23:37:40.155Z,12.00
2019-05-12T23:40:44.762Z,12.10
2019-05-12T23:43:50.172Z,12.10
2019-05-12T23:46:55.037Z,12.10
2019-05-12T23:50:00.105Z,12.10
2019-05-12T23:53:05.803Z,12.20
2019-05-12T23:56:10.636Z,12.20
2019-05-12T23:59:15.721Z,12.20
